createdAt,value
2018-08-20T00:01:32.227Z,13.80
2018-08-20T00:04:03.005Z,13.37
2018-08-20T00:06:43.537Z,14.00
2018-08-20T00:09:15.332Z,13.67
2018-08-20T00:11:44.507Z,13.23
2018-08-20T00:14:13.502Z,13.50
2018-08-20T00:16:42.219Z,14.87
2018-08-20T00:19:14.334Z,13.57
2018-08-20T00:21:44.773Z,13.60
2018-08-20T00:24:13.544Z,14.10
2018-08-20T00:26:42.221Z,14.90
2018-08-20T00:29:10.797Z,13.63
2018-08-20T00:31:39.712Z,13.80
2018-08-20T00:34:08.299Z,14.20
2018-08-20T00:36:36.942Z,15.67
2018-08-20T00:39:07.978Z,14.77
2018-08-20T00:41:36.649Z,13.47
2018-08-20T00:44:09.215Z,14.10
2018-08-20T00:46:37.865Z,14.50
2018-08-20T00:49:06.604Z,13.60
2018-08-20T00:51:35.396Z,15.13
2018-08-20T00:54:04.212Z,14.63
2018-08-20T00:56:32.927Z,15.50
2018-08-20T00:59:02.423Z,15.17
2018-08-20T01:01:31.399Z,16.13
2018-08-20T01:04:00.633Z,14.90
2018-08-20T01:06:29.611Z,15.20
2018-08-20T01:08:58.325Z,15.07
2018-08-20T01:11:27.002Z,15.00
2018-08-20T01:13:55.643Z,15.70
2018-08-20T01:16:24.352Z,15.37
2018-08-20T01:18:53.207Z,14.63
2018-08-20T01:21:21.842Z,15.10
2018-08-20T01:23:50.557Z,14.80
2018-08-20T01:26:19.353Z,14.90
2018-08-20T01:28:48.068Z,14.60
2018-08-20T01:31:16.788Z,15.60
2018-08-20T01:33:47.808Z,14.87
2018-08-20T01:36:16.526Z,13.70
2018-08-20T01:38:45.250Z,14.60
2018-08-20T01:41:13.924Z,13.23
2018-08-20T01:43:42.602Z,13.73
2018-08-20T01:46:11.277Z,14.47
2018-08-20T01:48:39.991Z,14.07
2018-08-20T01:51:08.707Z,14.30
2018-08-20T01:53:37.383Z,13.83
2018-08-20T01:56:06.063Z,13.73
2018-08-20T01:58:34.779Z,13.77
2018-08-20T02:01:03.550Z,14.50
2018-08-20T02:03:32.705Z,13.90
2018-08-20T02:06:01.401Z,13.57
2018-08-20T02:08:30.096Z,12.97
2018-08-20T02:10:59.271Z,12.17
2018-08-20T02:13:27.951Z,10.77
2018-08-20T02:15:56.722Z,10.50
2018-08-20T02:18:25.398Z,10.70
2018-08-20T02:21:00.716Z,10.73
2018-08-20T02:23:29.448Z,10.03
2018-08-20T02:25:58.084Z,11.87
2018-08-20T02:28:26.820Z,10.60
2018-08-20T02:30:55.455Z,10.90
2018-08-20T02:33:24.971Z,11.00
2018-08-20T02:35:53.626Z,12.53
2018-08-20T02:38:22.365Z,12.60
2018-08-20T02:40:50.988Z,12.67
2018-08-20T02:43:19.753Z,13.80
2018-08-20T02:45:48.428Z,13.27
2018-08-20T02:48:17.164Z,12.50
2018-08-20T02:50:45.781Z,13.20
2018-08-20T02:53:14.514Z,13.50
2018-08-20T02:55:43.210Z,14.73
2018-08-20T02:58:11.927Z,13.70
2018-08-20T03:00:40.582Z,13.80
2018-08-20T03:03:09.320Z,14.80
2018-08-20T03:05:48.551Z,14.40
2018-08-20T03:08:17.210Z,14.87
2018-08-20T03:10:45.903Z,15.33
2018-08-20T03:13:14.639Z,14.47
2018-08-20T03:15:43.274Z,13.90
2018-08-20T03:18:11.950Z,14.47
2018-08-20T03:20:40.605Z,13.50
2018-08-20T03:23:09.210Z,13.03
2018-08-20T03:25:37.876Z,13.10
2018-08-20T03:28:06.593Z,13.33
2018-08-20T03:30:35.287Z,14.10
2018-08-20T03:33:04.142Z,13.57
2018-08-20T03:35:32.779Z,11.70
2018-08-20T03:38:01.553Z,11.07
2018-08-20T03:40:30.909Z,11.20
2018-08-20T03:42:59.764Z,11.70
2018-08-20T03:45:28.439Z,11.63
2018-08-20T03:47:57.158Z,11.27
2018-08-20T03:50:25.873Z,11.27
2018-08-20T03:52:54.486Z,11.50
2018-08-20T03:55:23.182Z,11.40
2018-08-20T03:57:51.861Z,11.87
2018-08-20T04:00:23.772Z,11.33
2018-08-20T04:02:52.928Z,10.90
2018-08-20T04:05:21.623Z,11.43
2018-08-20T04:07:50.419Z,11.20
2018-08-20T04:10:19.034Z,10.17
2018-08-20T04:12:47.730Z,11.20
2018-08-20T04:15:51.222Z,9.97
2018-08-20T04:18:25.237Z,8.63
2018-08-20T04:23:50.081Z,9.03
2018-08-20T04:29:07.046Z,7.87
2018-08-20T04:31:36.489Z,7.80
2018-08-20T04:34:05.559Z,8.20
2018-08-20T04:36:34.488Z,8.07
2018-08-20T04:39:03.271Z,7.80
2018-08-20T04:41:31.916Z,8.10
2018-08-20T04:44:01.466Z,7.30
2018-08-20T04:46:30.149Z,7.70
2018-08-20T04:49:02.265Z,6.70
2018-08-20T04:51:31.205Z,6.20
2018-08-20T04:53:59.813Z,6.93
2018-08-20T04:56:28.403Z,7.10
2018-08-20T04:58:57.123Z,6.10
2018-08-20T05:01:27.079Z,6.40
2018-08-20T05:03:56.138Z,6.43
2018-08-20T05:06:25.910Z,6.47
2018-08-20T05:08:55.585Z,5.30
2018-08-20T05:11:24.160Z,6.20
2018-08-20T05:13:53.015Z,6.07
2018-08-20T05:16:21.790Z,6.07
2018-08-20T05:18:50.548Z,7.23
2018-08-20T05:21:20.461Z,6.70
2018-08-20T05:23:49.677Z,6.30
2018-08-20T05:26:19.032Z,6.47
2018-08-20T05:28:47.607Z,7.07
2018-08-20T05:31:22.902Z,6.47
2018-08-20T05:33:53.324Z,7.43
2018-08-20T05:36:28.131Z,7.17
2018-08-20T05:38:59.127Z,7.00
2018-08-20T05:41:27.937Z,5.23
2018-08-20T05:43:56.697Z,6.03
2018-08-20T05:46:25.294Z,6.73
2018-08-20T05:48:54.369Z,6.73
2018-08-20T05:51:23.124Z,6.77
2018-08-20T05:53:51.918Z,8.20
2018-08-20T05:56:20.997Z,7.03
2018-08-20T05:58:50.169Z,6.63
2018-08-20T06:01:19.261Z,6.60
2018-08-20T06:03:47.961Z,6.63
2018-08-20T06:06:16.697Z,7.20
2018-08-20T06:08:45.576Z,6.53
2018-08-20T06:11:14.318Z,6.70
2018-08-20T06:13:42.981Z,6.93
2018-08-20T06:16:11.689Z,6.20
2018-08-20T06:18:40.844Z,8.33
2018-08-20T06:21:09.767Z,7.03
2018-08-20T06:23:39.084Z,7.77
2018-08-20T06:26:08.838Z,7.93
2018-08-20T06:28:39.166Z,7.13
2018-08-20T06:31:07.889Z,8.30
2018-08-20T06:33:36.884Z,7.40
2018-08-20T06:36:05.820Z,9.17
2018-08-20T06:38:34.815Z,7.13
2018-08-20T06:41:03.615Z,9.10
2018-08-20T06:43:32.245Z,8.93
2018-08-20T06:46:01.262Z,9.03
2018-08-20T06:48:29.876Z,8.83
2018-08-20T06:50:58.772Z,9.50
2018-08-20T06:53:30.290Z,9.43
2018-08-20T06:56:02.702Z,10.83
2018-08-20T06:58:32.808Z,9.80
2018-08-20T07:01:01.695Z,9.10
2018-08-20T07:03:30.897Z,10.90
2018-08-20T07:05:59.684Z,10.20
2018-08-20T07:08:28.280Z,9.37
2018-08-20T07:10:57.495Z,10.73
2018-08-20T07:13:32.040Z,9.23
2018-08-20T07:16:00.725Z,9.80
2018-08-20T07:18:29.420Z,11.30
2018-08-20T07:20:59.335Z,11.90
2018-08-20T07:23:28.843Z,13.33
2018-08-20T07:25:57.552Z,11.40
2018-08-20T07:28:27.781Z,12.67
2018-08-20T07:30:57.097Z,13.40
2018-08-20T07:33:26.250Z,13.93
2018-08-20T07:35:55.386Z,14.40
2018-08-20T07:38:25.410Z,12.70
2018-08-20T07:40:54.977Z,13.80
2018-08-20T07:43:25.551Z,14.03
2018-08-20T07:45:54.707Z,13.87
2018-08-20T07:48:23.789Z,14.67
2018-08-20T07:50:53.580Z,15.37
2018-08-20T07:53:22.354Z,15.80
2018-08-20T07:55:56.708Z,16.00
2018-08-20T07:58:25.856Z,16.03
2018-08-20T08:00:55.620Z,15.17
2018-08-20T08:03:29.734Z,15.50
2018-08-20T08:06:00.483Z,15.47
2018-08-20T08:11:09.159Z,14.63
2018-08-20T08:13:37.897Z,16.23
2018-08-20T08:16:07.208Z,15.10
2018-08-20T08:18:39.545Z,17.30
2018-08-20T08:21:10.640Z,16.03
2018-08-20T08:23:55.429Z,15.13
2018-08-20T08:26:28.784Z,16.37
2018-08-20T08:28:57.765Z,16.20
2018-08-20T08:31:26.821Z,14.53
2018-08-20T08:33:56.457Z,15.80
2018-08-20T08:36:25.052Z,15.63
2018-08-20T08:39:04.847Z,15.40
2018-08-20T08:41:33.600Z,15.97
2018-08-20T08:44:02.449Z,15.87
2018-08-20T08:46:31.250Z,16.87
2018-08-20T08:49:02.002Z,15.70
2018-08-20T08:51:30.774Z,15.93
2018-08-20T08:54:00.698Z,14.80
2018-08-20T08:56:29.793Z,14.50
2018-08-20T08:58:58.529Z,15.83
2018-08-20T09:01:27.204Z,15.10
2018-08-20T09:03:56.856Z,14.07
2018-08-20T09:06:25.655Z,14.73
2018-08-20T09:08:54.611Z,14.23
2018-08-20T09:11:23.447Z,14.33
2018-08-20T09:13:52.306Z,12.67
2018-08-20T09:16:21.416Z,14.67
2018-08-20T09:18:50.332Z,12.83
2018-08-20T09:21:19.007Z,13.07
2018-08-20T09:23:47.843Z,14.00
2018-08-20T09:26:16.679Z,14.67
2018-08-20T09:28:45.357Z,14.50
2018-08-20T09:31:15.349Z,13.37
2018-08-20T09:33:44.264Z,13.53
2018-08-20T09:36:13.000Z,13.13
2018-08-20T09:38:52.174Z,12.80
2018-08-20T09:41:21.334Z,12.60
2018-08-20T09:43:50.074Z,12.20
2018-08-20T09:46:19.540Z,11.53
2018-08-20T09:48:48.303Z,13.20
2018-08-20T09:51:17.011Z,12.03
2018-08-20T09:53:46.211Z,12.97
2018-08-20T09:56:14.962Z,12.07
2018-08-20T09:58:43.647Z,12.60
2018-08-20T10:01:12.532Z,15.03
2018-08-20T10:03:44.799Z,13.53
2018-08-20T10:06:15.105Z,12.13
2018-08-20T10:08:43.958Z,13.93
2018-08-20T10:11:14.834Z,14.47
2018-08-20T10:13:43.509Z,15.27
2018-08-20T10:16:12.283Z,13.93
2018-08-20T10:18:42.559Z,15.27
2018-08-20T10:21:11.326Z,14.70
2018-08-20T10:23:40.211Z,16.53
2018-08-20T10:26:09.225Z,16.13
2018-08-20T10:28:37.813Z,16.17
2018-08-20T10:31:06.676Z,17.83
2018-08-20T10:33:35.518Z,15.60
2018-08-20T10:36:04.729Z,18.17
2018-08-20T10:51:01.823Z,14.87
2018-08-20T10:53:30.743Z,16.20
2018-08-20T10:55:59.438Z,15.37
2018-08-20T10:58:28.143Z,15.97
2018-08-20T11:10:53.080Z,16.10
2018-08-20T11:13:21.857Z,15.70
2018-08-20T11:15:52.812Z,13.75
2018-08-20T11:23:18.119Z,15.17
2018-08-20T11:25:46.813Z,16.60
2018-08-20T11:28:15.650Z,16.17
2018-08-20T11:30:44.346Z,15.20
2018-08-20T11:33:14.540Z,15.10
2018-08-20T11:58:25.000Z,14.60
2018-08-20T12:00:54.133Z,14.83
2018-08-20T12:03:22.926Z,13.13
2018-08-20T12:05:56.502Z,14.93
2018-08-20T12:08:25.964Z,14.73
2018-08-20T12:10:55.092Z,15.90
2018-08-20T12:13:25.045Z,15.20
2018-08-20T12:15:55.494Z,15.43
2018-08-20T12:18:28.597Z,14.67
2018-08-20T12:20:57.873Z,13.93
2018-08-20T12:23:27.203Z,13.20
2018-08-20T12:25:58.669Z,12.00
2018-08-20T12:28:27.679Z,13.37
2018-08-20T12:30:56.684Z,13.67
2018-08-20T12:33:25.293Z,12.03
2018-08-20T12:36:02.908Z,11.73
2018-08-20T12:38:31.548Z,10.63
2018-08-20T12:41:01.944Z,12.23
2018-08-20T12:43:42.876Z,12.90
2018-08-20T12:46:11.530Z,10.70
2018-08-20T12:48:45.647Z,12.37
2018-08-20T12:51:14.717Z,12.20
2018-08-20T12:53:44.012Z,13.00
2018-08-20T12:56:18.308Z,14.07
2018-08-20T12:58:53.051Z,13.20
2018-08-20T13:01:32.910Z,12.57
2018-08-20T13:04:01.972Z,14.37
2018-08-20T13:06:31.990Z,13.50
2018-08-20T13:09:01.633Z,13.33
2018-08-20T13:11:30.227Z,12.50
2018-08-20T13:14:00.508Z,15.10
2018-08-20T13:16:29.510Z,13.50
2018-08-20T13:19:00.461Z,13.20
2018-08-20T13:21:29.442Z,15.40
2018-08-20T13:23:58.037Z,15.40
2018-08-20T13:26:27.175Z,14.73
2018-08-20T13:28:58.447Z,14.33
2018-08-20T13:31:32.064Z,16.23
2018-08-20T13:34:01.502Z,14.43
2018-08-20T13:36:30.467Z,17.37
2018-08-20T13:38:59.850Z,16.30
2018-08-20T13:41:28.825Z,15.57
2018-08-20T13:44:00.187Z,17.37
2018-08-20T13:53:36.856Z,19.90
2018-08-20T13:56:05.484Z,18.23
2018-08-20T13:58:34.358Z,18.70
2018-08-20T14:01:03.383Z,17.87
2018-08-20T14:03:32.089Z,16.30
2018-08-20T14:06:01.120Z,16.70
2018-08-20T14:08:30.377Z,16.40
2018-08-20T14:10:59.111Z,15.73
2018-08-20T14:13:27.825Z,15.13
2018-08-20T14:15:56.622Z,13.57
2018-08-20T14:18:25.262Z,12.23
2018-08-20T14:21:05.453Z,11.60
2018-08-20T14:23:34.415Z,10.93
2018-08-20T14:26:03.163Z,12.90
2018-08-20T14:28:32.222Z,10.87
2018-08-20T14:31:01.434Z,10.50
2018-08-20T14:33:30.542Z,9.50
2018-08-20T14:35:59.488Z,10.17
2018-08-20T14:38:27.985Z,9.03
2018-08-20T14:40:56.584Z,9.60
2018-08-20T14:43:26.199Z,9.03
2018-08-20T14:46:00.127Z,9.10
2018-08-20T14:48:28.745Z,8.30
2018-08-20T14:50:57.452Z,9.50
2018-08-20T14:53:26.255Z,9.60
2018-08-20T14:55:55.019Z,9.47
2018-08-20T14:58:23.924Z,9.40
2018-08-20T15:00:52.579Z,9.97
2018-08-20T15:03:21.281Z,9.17
2018-08-20T15:05:50.471Z,10.20
2018-08-20T15:08:19.106Z,9.00
2018-08-20T15:10:48.402Z,9.77
2018-08-20T15:13:17.037Z,9.03
2018-08-20T15:15:45.840Z,8.90
2018-08-20T15:18:17.548Z,9.03
2018-08-20T15:20:46.104Z,8.70
2018-08-20T15:23:14.838Z,8.50
2018-08-20T15:25:43.555Z,8.77
2018-08-20T15:28:24.610Z,8.93
2018-08-20T15:30:53.253Z,7.97
2018-08-20T15:33:22.007Z,8.30
2018-08-20T15:35:50.721Z,7.67
2018-08-20T15:38:19.311Z,7.80
2018-08-20T15:40:49.186Z,8.07
2018-08-20T15:43:17.848Z,7.73
2018-08-20T15:45:48.426Z,9.23
2018-08-20T15:48:17.393Z,8.90
2018-08-20T15:50:46.409Z,7.60
2018-08-20T15:53:15.984Z,7.67
2018-08-20T15:55:44.865Z,8.30
2018-08-20T15:58:13.596Z,8.40
2018-08-20T16:00:42.192Z,9.07
2018-08-20T16:03:11.348Z,9.30
2018-08-20T16:05:41.593Z,9.37
2018-08-20T16:08:10.437Z,9.50
2018-08-20T16:10:39.112Z,11.77
2018-08-20T16:13:08.279Z,11.30
2018-08-20T16:15:37.044Z,12.67
2018-08-20T16:18:06.160Z,12.50
2018-08-20T16:20:34.937Z,11.50
2018-08-20T16:23:03.824Z,13.60
2018-08-20T16:25:32.545Z,13.10
2018-08-20T16:28:01.208Z,13.70
2018-08-20T16:30:29.984Z,12.17
2018-08-20T16:33:00.332Z,13.20
2018-08-20T16:35:28.946Z,12.50
2018-08-20T16:37:58.001Z,11.40
2018-08-20T16:40:26.797Z,10.47
2018-08-20T16:42:55.473Z,9.90
2018-08-20T16:45:24.245Z,9.40
2018-08-20T16:47:53.963Z,9.10
2018-08-20T16:50:22.660Z,7.70
2018-08-20T16:52:51.734Z,7.60
2018-08-20T16:55:20.449Z,7.37
2018-08-20T16:57:49.397Z,9.57
2018-08-20T17:00:18.383Z,9.30
2018-08-20T17:02:47.269Z,10.63
2018-08-20T17:05:16.510Z,10.43
2018-08-20T17:07:45.372Z,10.07
2018-08-20T17:10:14.403Z,10.53
2018-08-20T17:12:43.478Z,10.40
2018-08-20T17:15:17.814Z,9.00
2018-08-20T17:17:46.392Z,9.83
2018-08-20T17:20:15.965Z,9.00
2018-08-20T17:22:44.680Z,9.13
2018-08-20T17:25:13.277Z,9.40
2018-08-20T17:27:50.265Z,8.10
2018-08-20T17:30:24.125Z,7.37
2018-08-20T17:32:53.602Z,6.80
2018-08-20T17:35:22.297Z,5.90
2018-08-20T17:40:38.247Z,5.20
2018-08-20T17:43:08.063Z,5.10
2018-08-20T17:45:36.839Z,5.03
2018-08-20T17:48:06.129Z,4.60
2018-08-20T17:50:42.449Z,4.80
2018-08-20T17:53:11.150Z,4.17
2018-08-20T17:55:39.800Z,3.53
2018-08-20T17:58:08.712Z,3.03
2018-08-20T18:00:43.535Z,3.13
2018-08-20T18:03:19.329Z,3.10
2018-08-20T18:05:53.341Z,2.93
2018-08-20T18:08:24.004Z,3.43
2018-08-20T18:10:53.312Z,3.47
2018-08-20T18:13:34.947Z,3.00
2018-08-20T18:16:06.946Z,3.20
2018-08-20T18:18:36.645Z,3.43
2018-08-20T18:21:05.633Z,3.10
2018-08-20T18:23:35.273Z,3.60
2018-08-20T18:26:05.303Z,3.40
2018-08-20T18:28:46.719Z,3.60
2018-08-20T18:31:23.054Z,4.10
2018-08-20T18:33:51.742Z,3.80
2018-08-20T18:36:21.598Z,4.03
2018-08-20T18:38:53.241Z,4.17
2018-08-20T18:41:33.338Z,3.70
2018-08-20T18:44:02.073Z,3.93
2018-08-20T18:46:33.749Z,3.57
2018-08-20T18:49:02.920Z,3.60
2018-08-20T18:51:55.581Z,4.03
2018-08-20T18:54:25.781Z,3.83
2018-08-20T18:57:08.905Z,3.90
2018-08-20T19:04:07.175Z,3.73
2018-08-20T19:06:35.830Z,3.80
2018-08-20T19:09:05.266Z,3.77
2018-08-20T19:11:34.242Z,4.50
2018-08-20T19:14:07.091Z,4.73
2018-08-20T19:16:37.992Z,4.60
2018-08-20T19:19:07.928Z,4.77
2018-08-20T19:21:39.084Z,4.83
2018-08-20T19:24:11.884Z,5.77
2018-08-20T19:26:40.644Z,5.33
2018-08-20T19:29:28.228Z,4.70
2018-08-20T19:31:56.865Z,4.67
2018-08-20T19:34:25.740Z,4.90
2018-08-20T19:36:54.416Z,5.07
2018-08-20T19:39:23.052Z,4.90
2018-08-20T19:41:51.732Z,4.70
2018-08-20T19:44:20.407Z,4.80
2018-08-20T19:49:27.155Z,5.97
2018-08-20T19:51:55.889Z,4.77
2018-08-20T19:54:24.609Z,5.13
2018-08-20T19:56:53.240Z,4.97
2018-08-20T19:59:27.595Z,5.03
2018-08-20T20:01:56.611Z,5.27
2018-08-20T20:04:25.417Z,4.93
2018-08-20T20:06:54.403Z,4.90
2018-08-20T20:09:23.118Z,5.73
2018-08-20T20:11:51.974Z,5.23
2018-08-20T20:14:20.749Z,5.73
2018-08-20T20:16:55.304Z,6.10
2018-08-20T20:19:23.920Z,5.43
2018-08-20T20:21:52.656Z,6.07
2018-08-20T20:24:21.430Z,5.60
2018-08-20T20:26:50.187Z,5.33
2018-08-20T20:29:18.979Z,4.80
2018-08-20T20:31:47.758Z,5.30
2018-08-20T20:34:16.574Z,5.20
2018-08-20T20:36:45.211Z,6.20
2018-08-20T20:39:13.892Z,6.27
2018-08-20T20:41:42.541Z,5.97
2018-08-20T20:44:11.816Z,5.03
2018-08-20T20:46:40.592Z,4.83
2018-08-20T20:49:09.367Z,5.30
2018-08-20T20:51:38.062Z,5.10
2018-08-20T20:54:06.738Z,4.87
2018-08-20T20:56:35.593Z,5.67
2018-08-20T20:59:04.349Z,6.13
2018-08-20T21:01:33.044Z,5.73
2018-08-20T21:04:04.721Z,5.37
2018-08-20T21:06:40.398Z,5.37
2018-08-20T21:09:11.031Z,5.27
2018-08-20T21:11:39.966Z,5.03
2018-08-20T21:14:09.058Z,5.10
2018-08-20T21:16:37.563Z,4.67
2018-08-20T21:19:06.560Z,4.47
2018-08-20T21:21:35.248Z,4.87
2018-08-20T21:24:06.784Z,4.87
2018-08-20T21:26:35.500Z,5.90
2018-08-20T21:29:04.197Z,5.83
2018-08-20T21:31:37.352Z,5.80
2018-08-20T21:34:06.049Z,4.70
2018-08-20T21:36:34.681Z,5.53
2018-08-20T21:39:03.499Z,6.93
2018-08-20T21:41:32.199Z,6.60
2018-08-20T21:44:00.848Z,7.73
2018-08-20T21:46:29.464Z,6.60
2018-08-20T21:48:58.181Z,5.30
2018-08-20T21:51:29.715Z,5.47
2018-08-20T21:53:58.604Z,5.40
2018-08-20T21:56:38.586Z,5.40
2018-08-20T21:59:07.381Z,4.53
2018-08-20T22:01:36.096Z,4.60
2018-08-20T22:04:08.972Z,4.87
2018-08-20T22:06:37.607Z,4.03
2018-08-20T22:09:06.725Z,4.27
2018-08-20T22:11:35.278Z,4.53
2018-08-20T22:14:03.934Z,4.77
2018-08-20T22:16:32.628Z,4.50
2018-08-20T22:19:01.285Z,3.67
2018-08-20T22:21:30.000Z,4.33
2018-08-20T22:24:00.579Z,4.40
2018-08-20T22:26:29.351Z,5.10
2018-08-20T22:28:58.927Z,3.60
2018-08-20T22:31:28.156Z,3.40
2018-08-20T22:34:02.123Z,3.50
2018-08-20T22:36:31.994Z,3.73
2018-08-20T22:39:01.908Z,3.50
2018-08-20T22:41:31.378Z,4.13
2018-08-20T22:44:00.020Z,3.67
2018-08-20T22:46:28.735Z,3.50
2018-08-20T22:48:58.671Z,3.57
2018-08-20T22:51:28.328Z,3.53
2018-08-20T22:53:59.282Z,3.73
2018-08-20T22:56:32.737Z,3.40
2018-08-20T22:59:09.292Z,4.37
2018-08-20T23:01:37.989Z,4.17
2018-08-20T23:04:07.046Z,3.53
2018-08-20T23:06:35.699Z,3.77
2018-08-20T23:09:20.833Z,5.07
2018-08-20T23:11:49.569Z,3.53
2018-08-20T23:14:18.232Z,3.97
2018-08-20T23:16:49.641Z,3.30
2018-08-20T23:19:18.576Z,3.60
2018-08-20T23:21:48.116Z,3.60
2018-08-20T23:24:17.607Z,3.40
2018-08-20T23:26:46.335Z,4.27
2018-08-20T23:29:15.118Z,4.80
2018-08-20T23:31:43.775Z,3.80
2018-08-20T23:34:13.730Z,3.43
2018-08-20T23:36:43.006Z,5.60
2018-08-20T23:39:14.579Z,3.67
2018-08-20T23:41:43.296Z,4.83
2018-08-20T23:44:13.551Z,3.50
2018-08-20T23:46:44.399Z,3.90
2018-08-20T23:49:13.069Z,3.30
2018-08-20T23:51:41.778Z,3.63
2018-08-20T23:54:11.708Z,3.50
2018-08-20T23:56:40.624Z,3.50
2018-08-20T23:59:09.628Z,4.23
